Time;durP1;ratioP1;P1;durP2;ratioP2;P2;SDS_P1;SDS_P2;PMS_P1;PMS_P2;Temp;Humidity;BMP_temperature;BMP_pressure;BME280_temperature;BME280_humidity;BME280_pressure;Samples;Min_cycle;Max_cycle;Signal;HPM_P1;HPM_P2
2021/03/14 00:00:47;;;;;;;4.63;1.30;;;4.50;99.90;;;;;;5038394;28;20509;-54
2021/03/14 00:03:17;;;;;;;6.50;1.47;;;4.40;99.90;;;;;;5038869;28;20571;-55
2021/03/14 00:05:48;;;;;;;3.40;0.93;;;4.40;99.90;;;;;;5035491;28;21209;-54
2021/03/14 00:08:17;;;;;;;3.30;1.03;;;4.30;99.90;;;;;;5038733;28;20578;-53
2021/03/14 00:10:48;;;;;;;7.53;2.57;;;4.30;99.90;;;;;;5047108;28;20961;-54
2021/03/14 00:13:19;;;;;;;6.00;1.23;;;4.20;99.90;;;;;;5048342;28;20507;-52
2021/03/14 00:15:47;;;;;;;7.23;1.80;;;4.20;99.90;;;;;;5049440;28;20477;-52
2021/03/14 00:18:16;;;;;;;6.40;1.77;;;4.20;99.90;;;;;;5049320;28;21013;-53
2021/03/14 00:20:44;;;;;;;5.03;1.77;;;4.20;99.90;;;;;;5045675;28;20543;-53
2021/03/14 00:23:12;;;;;;;10.57;2.17;;;4.30;99.90;;;;;;5028856;28;20466;-52
2021/03/14 00:25:40;;;;;;;7.20;2.40;;;4.20;99.90;;;;;;5037258;28;20473;-52
2021/03/14 00:28:07;;;;;;;13.10;2.83;;;4.30;99.90;;;;;;5039580;28;20499;-55
2021/03/14 00:30:36;;;;;;;7.97;2.40;;;4.30;99.90;;;;;;5027123;28;20483;-51
2021/03/14 00:33:04;;;;;;;11.43;2.50;;;4.30;99.90;;;;;;5029101;28;20484;-54
2021/03/14 00:35:31;;;;;;;18.33;3.30;;;4.40;99.90;;;;;;5027641;28;20504;-55
2021/03/14 00:37:59;;;;;;;8.13;3.10;;;4.40;99.90;;;;;;5027034;28;20495;-54
2021/03/14 00:40:27;;;;;;;12.60;3.33;;;4.40;99.90;;;;;;5029705;28;20539;-55
2021/03/14 00:42:57;;;;;;;16.10;3.67;;;4.50;99.90;;;;;;5031214;28;20536;-55
2021/03/14 00:45:31;;;;;;;12.70;3.73;;;4.50;99.90;;;;;;5013521;28;20532;-54
2021/03/14 00:48:01;;;;;;;13.87;3.67;;;4.50;99.90;;;;;;5007017;28;20506;-51
2021/03/14 00:50:30;;;;;;;18.10;4.20;;;4.60;99.90;;;;;;5006805;28;20567;-51
2021/03/14 00:52:58;;;;;;;13.80;3.97;;;4.60;99.90;;;;;;5008626;28;20540;-51
2021/03/14 00:55:26;;;;;;;18.77;4.50;;;4.60;99.90;;;;;;5024256;28;20513;-55
2021/03/14 00:57:53;;;;;;;16.73;4.97;;;4.70;99.90;;;;;;5009008;28;21061;-54
2021/03/14 01:00:22;;;;;;;13.93;3.87;;;4.70;99.90;;;;;;5022446;28;20530;-55
2021/03/14 01:02:50;;;;;;;18.00;4.83;;;4.70;99.90;;;;;;5008983;28;20480;-52
2021/03/14 01:05:22;;;;;;;22.07;4.47;;;4.70;99.90;;;;;;5024346;28;20818;-52
2021/03/14 01:07:49;;;;;;;18.23;5.60;;;4.80;99.90;;;;;;5023705;28;20477;-52
2021/03/14 01:10:17;;;;;;;18.93;4.63;;;4.70;99.90;;;;;;5028217;28;20482;-52
2021/03/14 01:12:45;;;;;;;21.53;4.43;;;4.80;99.90;;;;;;5045820;28;20481;-52
2021/03/14 01:15:20;;;;;;;15.27;3.87;;;4.80;99.90;;;;;;5046639;28;20807;-53
2021/03/14 01:17:52;;;;;;;16.37;3.83;;;4.80;99.90;;;;;;5024924;28;20835;-51
2021/03/14 01:20:23;;;;;;;9.47;3.47;;;4.80;99.90;;;;;;5025021;28;20555;-53
2021/03/14 01:22:51;;;;;;;13.97;3.80;;;4.80;99.90;;;;;;5033618;28;20469;-53
2021/03/14 01:25:19;;;;;;;14.03;3.40;;;4.80;99.90;;;;;;5030195;28;20995;-51
2021/03/14 01:27:53;;;;;;;16.33;4.37;;;4.90;99.90;;;;;;5026715;28;20471;-53
2021/03/14 01:30:22;;;;;;;19.13;4.33;;;4.90;99.90;;;;;;5027728;28;20490;-52
2021/03/14 01:32:50;;;;;;;27.53;4.87;;;4.90;99.90;;;;;;5047877;28;20931;-55
2021/03/14 01:35:19;;;;;;;14.83;4.77;;;4.90;99.90;;;;;;5046851;28;20494;-56
2021/03/14 01:37:48;;;;;;;20.13;4.40;;;4.90;99.90;;;;;;5042451;28;20486;-52
2021/03/14 01:40:17;;;;;;;16.80;4.00;;;4.90;99.90;;;;;;5045667;28;20462;-56
2021/03/14 01:42:45;;;;;;;19.10;3.67;;;4.90;99.90;;;;;;5047600;28;20250;-53
2021/03/14 01:45:14;;;;;;;18.23;4.63;;;5.00;99.90;;;;;;5044321;28;20470;-54
2021/03/14 01:47:47;;;;;;;15.47;4.03;;;5.00;99.90;;;;;;5047444;28;20243;-52
2021/03/14 01:50:18;;;;;;;16.20;3.97;;;4.90;99.90;;;;;;5047602;28;20809;-53
2021/03/14 01:52:47;;;;;;;14.00;4.40;;;5.00;99.90;;;;;;5047828;28;20254;-52
2021/03/14 01:55:17;;;;;;;19.30;4.43;;;5.00;99.90;;;;;;5048174;28;20553;-55
2021/03/14 01:57:45;;;;;;;18.07;4.63;;;5.00;99.90;;;;;;5042630;28;20513;-52
2021/03/14 02:00:16;;;;;;;12.70;3.50;;;5.00;99.90;;;;;;5037813;28;20557;-53
2021/03/14 02:02:45;;;;;;;16.47;4.30;;;5.00;99.90;;;;;;5047558;28;20719;-51
2021/03/14 02:05:15;;;;;;;13.43;3.50;;;5.00;99.90;;;;;;5048118;28;20486;-53
2021/03/14 02:07:46;;;;;;;21.10;4.10;;;5.00;99.90;;;;;;5047677;28;20895;-52
2021/03/14 02:10:17;;;;;;;11.77;3.50;;;5.00;99.90;;;;;;5047803;28;20308;-53
2021/03/14 02:12:51;;;;;;;16.37;3.70;;;5.00;99.90;;;;;;5047088;28;20559;-55
2021/03/14 02:15:19;;;;;;;12.47;3.53;;;5.00;99.90;;;;;;5047647;28;20650;-52
2021/03/14 02:17:48;;;;;;;9.80;2.60;;;5.00;99.90;;;;;;5040403;28;20244;-51
2021/03/14 02:20:19;;;;;;;7.27;2.10;;;4.90;99.90;;;;;;5025293;28;20233;-52
2021/03/14 02:22:49;;;;;;;8.33;1.83;;;4.50;99.90;;;;;;5037375;28;20610;-51
2021/03/14 02:25:32;;;;;;;4.53;1.90;;;4.30;99.90;;;;;;5047389;28;20243;-55
2021/03/14 02:28:01;;;;;;;8.67;2.33;;;4.30;99.90;;;;;;5038852;28;20470;-55
2021/03/14 02:30:28;;;;;;;9.27;2.57;;;4.30;99.90;;;;;;5047247;28;20881;-53
2021/03/14 02:32:56;;;;;;;9.90;3.27;;;4.30;99.90;;;;;;5047425;28;20986;-54
2021/03/14 02:35:24;;;;;;;12.67;3.90;;;4.40;99.90;;;;;;5028978;28;20533;-53
2021/03/14 02:37:52;;;;;;;15.90;4.10;;;4.50;99.90;;;;;;5020197;28;20874;-52
2021/03/14 02:40:21;;;;;;;17.17;4.00;;;4.50;99.90;;;;;;5013104;28;20499;-52
2021/03/14 02:42:50;;;;;;;14.13;3.50;;;4.50;99.90;;;;;;5011496;28;20472;-52
2021/03/14 02:45:18;;;;;;;18.00;4.30;;;4.50;99.90;;;;;;5012560;28;20566;-52
2021/03/14 02:47:46;;;;;;;11.27;3.77;;;4.50;99.90;;;;;;5015201;28;20905;-52
2021/03/14 02:50:17;;;;;;;12.13;3.97;;;4.50;99.90;;;;;;5030857;28;20525;-52
2021/03/14 02:52:47;;;;;;;19.87;4.23;;;4.50;99.90;;;;;;5031124;28;20562;-52
2021/03/14 02:55:20;;;;;;;11.60;3.37;;;4.50;99.90;;;;;;5023782;28;20553;-51
2021/03/14 02:57:50;;;;;;;10.57;3.90;;;4.60;99.90;;;;;;5012888;28;20487;-55
2021/03/14 03:00:22;;;;;;;12.90;3.70;;;4.50;99.90;;;;;;5031170;28;20506;-55
2021/03/14 03:02:55;;;;;;;12.77;3.97;;;4.50;99.90;;;;;;5030726;28;21394;-53
2021/03/14 03:05:24;;;;;;;11.83;4.23;;;4.50;99.90;;;;;;5031423;28;20495;-51
2021/03/14 03:07:54;;;;;;;12.83;4.00;;;4.50;99.90;;;;;;5046062;28;20488;-52
2021/03/14 03:10:27;;;;;;;12.93;4.20;;;4.40;99.90;;;;;;5062494;28;20482;-51
2021/03/14 03:12:58;;;;;;;11.17;3.97;;;4.40;99.90;;;;;;5065314;28;20568;-53
2021/03/14 03:15:28;;;;;;;15.73;4.63;;;4.30;99.90;;;;;;5061876;28;20564;-52
2021/03/14 03:17:55;;;;;;;12.47;4.10;;;4.30;99.90;;;;;;5057737;28;20543;-54
2021/03/14 03:20:25;;;;;;;12.77;4.97;;;4.20;99.90;;;;;;5045072;28;20481;-54
2021/03/14 03:22:54;;;;;;;13.43;4.33;;;4.20;99.90;;;;;;5064006;28;20475;-52
2021/03/14 03:25:22;;;;;;;11.43;4.20;;;4.20;99.90;;;;;;5050442;28;20478;-52
2021/03/14 03:27:49;;;;;;;10.10;4.20;;;4.20;99.90;;;;;;5050018;28;20469;-51
2021/03/14 03:30:20;;;;;;;13.37;4.30;;;4.20;99.90;;;;;;5050742;28;21009;-53
2021/03/14 03:32:49;;;;;;;14.07;4.27;;;4.10;99.90;;;;;;5049810;28;20528;-52
2021/03/14 03:35:18;;;;;;;12.63;4.13;;;4.20;99.90;;;;;;5051285;28;20470;-51
2021/03/14 03:37:48;;;;;;;11.10;4.00;;;4.10;99.90;;;;;;5036197;28;20957;-52
2021/03/14 03:40:21;;;;;;;13.33;4.43;;;4.10;99.90;;;;;;5055906;28;20504;-53
2021/03/14 03:42:54;;;;;;;14.90;4.20;;;4.00;99.90;;;;;;5049781;28;20477;-53
2021/03/14 03:45:23;;;;;;;12.37;4.13;;;4.00;99.90;;;;;;5050564;28;20884;-53
2021/03/14 03:47:53;;;;;;;14.53;4.53;;;4.00;99.90;;;;;;5050040;28;20485;-53
2021/03/14 03:50:23;;;;;;;15.87;4.63;;;4.10;99.90;;;;;;5048580;28;20478;-53
2021/03/14 03:52:55;;;;;;;12.30;4.10;;;4.10;99.90;;;;;;5050023;28;20482;-51
2021/03/14 03:55:23;;;;;;;14.13;3.97;;;4.20;99.90;;;;;;5050810;28;20541;-53
2021/03/14 03:57:51;;;;;;;12.63;4.13;;;4.30;99.90;;;;;;5050168;28;21028;-51
2021/03/14 04:00:20;;;;;;;15.93;3.93;;;4.30;99.90;;;;;;5049463;28;20525;-51
2021/03/14 04:02:49;;;;;;;14.33;3.83;;;4.40;99.90;;;;;;5050173;28;20500;-52
2021/03/14 04:05:19;;;;;;;17.17;4.10;;;4.40;99.90;;;;;;5048663;28;20466;-51
2021/03/14 04:07:49;;;;;;;12.80;3.80;;;4.50;99.90;;;;;;5050292;28;20501;-54
2021/03/14 04:10:19;;;;;;;16.17;4.20;;;4.50;99.90;;;;;;5059848;28;20469;-54
2021/03/14 04:12:51;;;;;;;20.23;4.30;;;4.60;99.90;;;;;;5041284;28;20470;-52
2021/03/14 04:15:22;;;;;;;24.40;4.10;;;4.60;99.90;;;;;;5048454;28;20490;-53
2021/03/14 04:17:51;;;;;;;16.93;4.03;;;4.60;99.90;;;;;;5044879;28;20977;-56
2021/03/14 04:20:23;;;;;;;18.27;4.60;;;4.70;99.90;;;;;;5052850;28;20469;-52
2021/03/14 04:22:56;;;;;;;18.40;4.87;;;4.70;99.90;;;;;;5042970;28;20475;-51
2021/03/14 04:25:26;;;;;;;20.97;4.47;;;4.70;99.90;;;;;;5034144;28;20528;-51
2021/03/14 04:27:56;;;;;;;17.23;4.40;;;4.80;99.90;;;;;;5061321;28;21086;-54
2021/03/14 04:30:27;;;;;;;21.58;4.88;;;4.80;99.90;;;;;;5069383;28;20811;-52
2021/03/14 04:32:55;;;;;;;18.73;4.20;;;4.80;99.90;;;;;;5069736;28;20234;-51
2021/03/14 04:35:25;;;;;;;21.97;4.83;;;4.80;99.90;;;;;;5043026;28;20486;-54
2021/03/14 04:37:54;;;;;;;14.67;4.17;;;4.80;99.90;;;;;;5042758;28;20828;-53
2021/03/14 04:40:22;;;;;;;12.87;3.73;;;4.80;99.90;;;;;;5060773;28;20921;-53
2021/03/14 04:42:53;;;;;;;14.40;4.57;;;4.80;99.90;;;;;;5069142;28;20567;-53
2021/03/14 04:45:22;;;;;;;16.13;4.30;;;4.80;99.90;;;;;;5062346;28;20684;-52
2021/03/14 04:47:50;;;;;;;12.40;3.67;;;4.80;99.90;;;;;;5046982;28;20509;-56
2021/03/14 04:50:22;;;;;;;18.17;4.57;;;4.80;99.90;;;;;;5029205;28;20908;-52
2021/03/14 04:52:54;;;;;;;18.83;4.53;;;4.80;99.90;;;;;;5028535;28;20478;-53
2021/03/14 04:55:22;;;;;;;21.13;3.80;;;4.90;99.90;;;;;;5029284;28;20247;-53
2021/03/14 04:57:50;;;;;;;18.97;3.97;;;4.80;99.90;;;;;;5029050;28;20474;-51
2021/03/14 05:00:20;;;;;;;17.50;4.53;;;4.80;99.90;;;;;;5031452;28;20909;-52
2021/03/14 05:02:53;;;;;;;18.13;4.57;;;4.80;99.90;;;;;;5028634;28;20485;-54
2021/03/14 05:05:21;;;;;;;14.43;3.90;;;4.80;99.90;;;;;;5047499;28;20476;-52
2021/03/14 05:07:50;;;;;;;15.37;4.10;;;4.80;99.90;;;;;;5047073;28;20475;-56
2021/03/14 05:10:20;;;;;;;14.97;3.90;;;4.90;99.90;;;;;;5053097;28;20570;-52
2021/03/14 05:12:50;;;;;;;15.70;4.13;;;4.90;99.90;;;;;;5045617;28;20304;-54
2021/03/14 05:15:19;;;;;;;13.60;3.80;;;4.90;99.90;;;;;;5022613;28;20700;-56
2021/03/14 05:17:49;;;;;;;19.20;5.00;;;4.90;99.90;;;;;;5028321;28;20711;-54
2021/03/14 05:20:19;;;;;;;15.63;4.20;;;4.90;99.90;;;;;;5026304;28;20481;-54
2021/03/14 05:22:48;;;;;;;18.60;3.57;;;4.90;99.90;;;;;;5028750;28;20510;-53
2021/03/14 05:25:19;;;;;;;16.53;4.13;;;4.90;99.90;;;;;;5028985;28;20472;-54
2021/03/14 05:27:49;;;;;;;12.27;3.57;;;4.90;99.90;;;;;;5028070;28;20882;-54
2021/03/14 05:30:23;;;;;;;20.07;3.90;;;4.90;99.90;;;;;;5027760;28;20246;-55
2021/03/14 05:32:53;;;;;;;16.20;3.70;;;4.90;99.90;;;;;;5027814;28;20353;-55
2021/03/14 05:35:24;;;;;;;13.53;3.13;;;4.90;99.90;;;;;;5027368;28;20478;-54
2021/03/14 05:37:52;;;;;;;14.97;3.57;;;4.90;99.90;;;;;;5025157;28;20493;-51
2021/03/14 05:40:22;;;;;;;18.73;4.00;;;4.90;99.90;;;;;;5046717;28;20511;-52
2021/03/14 05:42:49;;;;;;;16.50;3.60;;;4.90;99.90;;;;;;5028188;28;20264;-52
2021/03/14 05:45:18;;;;;;;11.83;3.33;;;4.90;99.90;;;;;;5028297;28;20247;-52
2021/03/14 05:47:47;;;;;;;12.93;3.30;;;4.90;99.90;;;;;;5031933;28;20566;-51
2021/03/14 05:50:20;;;;;;;19.30;3.87;;;4.90;99.90;;;;;;5043993;28;20616;-51
2021/03/14 05:52:50;;;;;;;13.53;3.60;;;4.90;99.90;;;;;;5032078;28;20505;-53
2021/03/14 05:55:20;;;;;;;19.47;3.90;;;4.90;99.90;;;;;;5044923;28;20239;-52
2021/03/14 05:57:50;;;;;;;11.30;3.53;;;4.90;99.90;;;;;;5040912;28;20560;-55
2021/03/14 06:00:25;;;;;;;12.73;3.70;;;4.80;99.90;;;;;;5036818;28;20239;-52
2021/03/14 06:02:59;;;;;;;13.10;2.97;;;4.80;99.90;;;;;;5040950;28;20483;-54
2021/03/14 06:05:28;;;;;;;11.03;3.23;;;4.80;99.90;;;;;;5037959;28;20594;-53
2021/03/14 06:07:57;;;;;;;15.70;2.97;;;4.80;99.90;;;;;;5036630;28;20631;-52
2021/03/14 06:10:26;;;;;;;19.03;3.57;;;4.80;99.90;;;;;;5034953;28;21106;-53
2021/03/14 06:12:53;;;;;;;10.53;3.27;;;4.80;99.90;;;;;;5043148;28;20480;-54
2021/03/14 06:15:20;;;;;;;10.93;2.80;;;4.80;99.90;;;;;;5047802;28;20497;-52
2021/03/14 06:17:48;;;;;;;13.10;3.20;;;4.80;99.90;;;;;;5036688;28;20252;-52
2021/03/14 06:20:38;;;;;;;15.73;3.63;;;4.80;99.90;;;;;;5039039;28;20501;-52
2021/03/14 06:23:08;;;;;;;14.47;3.53;;;4.80;99.90;;;;;;5038723;28;20549;-51
2021/03/14 06:25:37;;;;;;;14.93;3.13;;;4.70;99.90;;;;;;5036074;28;20232;-52
2021/03/14 06:28:05;;;;;;;16.30;3.50;;;4.70;99.90;;;;;;5043880;28;20591;-51
2021/03/14 06:30:34;;;;;;;11.17;3.23;;;4.70;99.90;;;;;;5036940;28;20281;-55
2021/03/14 06:33:11;;;;;;;14.33;3.80;;;4.80;99.90;;;;;;5036652;28;20317;-55
2021/03/14 06:35:44;;;;;;;16.33;3.30;;;4.80;99.90;;;;;;5033578;28;20568;-55
2021/03/14 06:38:27;;;;;;;16.37;3.90;;;4.80;99.90;;;;;;5054910;28;20254;-56
2021/03/14 06:41:14;;;;;;;16.70;3.10;;;4.90;99.90;;;;;;5040799;28;20513;-52
2021/03/14 06:43:45;;;;;;;17.50;3.73;;;4.90;99.90;;;;;;5029681;28;21042;-51
2021/03/14 06:46:23;;;;;;;14.07;3.77;;;4.90;99.90;;;;;;5012879;28;20245;-55
2021/03/14 06:49:16;;;;;;;14.60;3.47;;;5.00;99.90;;;;;;5040263;28;20484;-52
2021/03/14 06:51:46;;;;;;;15.03;4.00;;;5.00;99.90;;;;;;5028190;28;20334;-52
2021/03/14 06:54:29;;;;;;;14.97;3.77;;;5.10;99.90;;;;;;5034241;28;20466;-52
2021/03/14 06:57:11;;;;;;;14.27;3.73;;;5.10;99.90;;;;;;5033562;28;20541;-53
2021/03/14 06:59:42;;;;;;;16.63;3.83;;;5.20;99.90;;;;;;5037292;28;20528;-53
2021/03/14 07:02:12;;;;;;;21.03;4.23;;;5.20;99.90;;;;;;5041547;28;20509;-53
2021/03/14 07:04:46;;;;;;;15.53;3.97;;;5.20;99.90;;;;;;5037925;28;20557;-52
2021/03/14 07:07:22;;;;;;;16.17;4.10;;;5.20;99.90;;;;;;5039504;28;20498;-53
2021/03/14 07:09:56;;;;;;;17.50;5.10;;;5.20;99.90;;;;;;5032429;28;20259;-52
2021/03/14 07:12:29;;;;;;;20.07;3.93;;;5.30;99.90;;;;;;5043318;28;20520;-53
2021/03/14 07:14:57;;;;;;;15.33;3.60;;;5.30;99.90;;;;;;5032888;28;21041;-52
2021/03/14 07:17:34;;;;;;;15.97;3.67;;;5.30;99.90;;;;;;5038053;28;20474;-51
2021/03/14 07:20:10;;;;;;;19.77;4.53;;;5.40;99.90;;;;;;5035752;28;20699;-54
2021/03/14 07:22:38;;;;;;;20.73;4.20;;;5.40;99.90;;;;;;5033486;28;20546;-54
2021/03/14 07:25:21;;;;;;;19.53;4.30;;;5.50;99.90;;;;;;5045336;28;20482;-53
2021/03/14 07:27:50;;;;;;;17.17;4.07;;;5.50;99.90;;;;;;5038272;28;20970;-55
2021/03/14 07:30:22;;;;;;;15.33;3.70;;;5.50;99.90;;;;;;5042260;28;20583;-53
2021/03/14 07:32:50;;;;;;;20.10;4.23;;;5.50;99.90;;;;;;5048152;28;20469;-54
2021/03/14 07:35:20;;;;;;;19.03;3.93;;;5.50;99.90;;;;;;5040266;28;20479;-54
2021/03/14 07:37:49;;;;;;;18.17;4.20;;;5.50;99.90;;;;;;5037425;28;20483;-54
2021/03/14 07:40:19;;;;;;;14.67;3.93;;;5.60;99.90;;;;;;5042025;28;20263;-55
2021/03/14 07:42:56;;;;;;;11.77;3.00;;;5.80;99.90;;;;;;5040144;28;20470;-55
2021/03/14 07:45:26;;;;;;;12.57;3.13;;;6.10;99.90;;;;;;5048767;28;20474;-52
2021/03/14 07:47:54;;;;;;;17.97;3.27;;;6.30;99.90;;;;;;5038792;28;20297;-54
2021/03/14 07:50:26;;;;;;;12.73;3.07;;;6.50;99.90;;;;;;5038806;28;20474;-52
2021/03/14 07:53:03;;;;;;;11.37;4.10;;;6.60;99.90;;;;;;5039379;28;20245;-55
2021/03/14 07:55:30;;;;;;;10.53;2.77;;;6.90;99.90;;;;;;5038482;28;20267;-55
2021/03/14 07:57:59;;;;;;;11.80;3.20;;;7.00;99.90;;;;;;5038327;28;20256;-54
2021/03/14 08:00:29;;;;;;;12.83;2.83;;;7.10;99.90;;;;;;5037648;28;20357;-54
2021/03/14 08:02:59;;;;;;;15.77;3.40;;;7.10;99.90;;;;;;5048420;28;20289;-51
2021/03/14 08:05:48;;;;;;;11.90;2.73;;;7.00;99.90;;;;;;5039328;28;20227;-54
2021/03/14 08:08:47;;;;;;;16.93;3.20;;;6.90;99.90;;;;;;5043379;28;20236;-52
2021/03/14 08:11:28;;;;;;;16.73;3.23;;;6.80;99.90;;;;;;5029758;28;20239;-52
2021/03/14 08:13:58;;;;;;;12.20;2.93;;;6.90;99.90;;;;;;5027352;28;20329;-54
2021/03/14 08:16:26;;;;;;;15.40;3.30;;;6.70;99.90;;;;;;5021164;28;20224;-55
2021/03/14 08:18:55;;;;;;;13.47;2.60;;;6.60;99.90;;;;;;5027135;28;20306;-52
2021/03/14 08:21:40;;;;;;;12.87;2.60;;;6.50;99.90;;;;;;5027882;28;20474;-54
2021/03/14 08:24:16;;;;;;;13.93;2.60;;;6.60;99.90;;;;;;5030023;28;20306;-54
2021/03/14 08:26:45;;;;;;;9.60;2.17;;;6.90;99.90;;;;;;5029608;28;20236;-54
2021/03/14 08:29:19;;;;;;;9.47;2.27;;;7.30;99.90;;;;;;5023303;28;20245;-55
2021/03/14 08:31:54;;;;;;;10.00;2.07;;;7.70;99.90;;;;;;5024412;28;20600;-55
2021/03/14 08:34:44;;;;;;;14.80;2.70;;;7.70;99.90;;;;;;5046969;28;20624;-53
2021/03/14 08:37:23;;;;;;;10.90;2.30;;;7.60;99.90;;;;;;5025653;28;20247;-56
2021/03/14 08:39:59;;;;;;;16.40;2.60;;;7.50;99.90;;;;;;5018312;28;20240;-52
2021/03/14 08:42:54;;;;;;;11.30;2.20;;;7.40;99.90;;;;;;5022453;28;20244;-54
2021/03/14 08:45:29;;;;;;;10.30;2.30;;;7.40;99.90;;;;;;5022063;28;20234;-55
2021/03/14 08:48:19;;;;;;;14.30;2.60;;;7.60;99.90;;;;;;5037693;28;20359;-55
2021/03/14 08:50:51;;;;;;;12.00;2.30;;;7.70;99.90;;;;;;5018100;28;20504;-53
2021/03/14 08:53:22;;;;;;;15.47;2.20;;;7.60;99.90;;;;;;5026550;28;20240;-56
2021/03/14 08:56:07;;;;;;;16.77;3.07;;;7.50;99.90;;;;;;5016841;28;20323;-51
2021/03/14 08:58:42;;;;;;;14.03;2.60;;;7.40;99.90;;;;;;5023543;28;20259;-53
2021/03/14 09:01:15;;;;;;;13.53;2.43;;;7.40;99.90;;;;;;5034260;28;20664;-55
2021/03/14 09:04:11;;;;;;;15.33;2.37;;;7.50;99.90;;;;;;5025832;28;20236;-51
2021/03/14 09:06:39;;;;;;;12.17;2.27;;;7.60;99.90;;;;;;5021211;28;20330;-53
2021/03/14 09:09:17;;;;;;;15.33;2.40;;;7.80;99.90;;;;;;5019541;28;20715;-52
2021/03/14 09:11:55;;;;;;;15.27;2.67;;;7.70;99.90;;;;;;5034953;28;20237;-52
2021/03/14 09:14:43;;;;;;;13.37;2.80;;;7.50;99.90;;;;;;5022672;28;21503;-53
2021/03/14 09:17:20;;;;;;;12.93;2.27;;;7.50;99.90;;;;;;5017993;28;20326;-54
2021/03/14 09:19:52;;;;;;;13.57;2.07;;;7.50;99.90;;;;;;5032361;28;20952;-54
2021/03/14 09:22:22;;;;;;;14.43;2.53;;;7.30;99.90;;;;;;5031926;28;20298;-55
2021/03/14 09:25:06;;;;;;;13.43;2.70;;;7.10;99.90;;;;;;5049940;28;20262;-52
2021/03/14 09:27:37;;;;;;;10.90;2.57;;;7.00;99.90;;;;;;5035779;28;20330;-51
2021/03/14 09:30:12;;;;;;;21.37;3.27;;;7.00;99.90;;;;;;5046312;28;20236;-54
2021/03/14 09:32:43;;;;;;;12.80;2.10;;;7.10;99.90;;;;;;5037393;28;20255;-53
2021/03/14 09:35:25;;;;;;;12.57;2.83;;;7.30;99.90;;;;;;5053300;28;20706;-53
2021/03/14 09:37:57;;;;;;;17.90;2.83;;;7.40;99.90;;;;;;5050211;28;20236;-55
2021/03/14 09:40:45;;;;;;;13.17;2.77;;;7.30;99.90;;;;;;5032638;28;20585;-53
2021/03/14 09:43:16;;;;;;;13.17;2.47;;;7.30;99.90;;;;;;5042042;28;20315;-55
2021/03/14 09:46:09;;;;;;;13.00;2.67;;;7.20;99.90;;;;;;5006495;28;20245;-53
2021/03/14 09:48:51;;;;;;;12.87;2.40;;;7.20;99.90;;;;;;5022055;28;20240;-52
2021/03/14 09:51:19;;;;;;;15.83;3.10;;;7.20;99.90;;;;;;5044144;28;20585;-52
2021/03/14 09:53:48;;;;;;;17.07;3.33;;;7.20;99.90;;;;;;5045225;28;20243;-55
2021/03/14 09:56:23;;;;;;;15.13;2.70;;;7.10;99.90;;;;;;5042506;28;20612;-53
2021/03/14 09:59:10;;;;;;;13.87;2.83;;;7.20;99.90;;;;;;5027041;28;20287;-53
2021/03/14 10:01:55;;;;;;;15.43;2.57;;;7.20;99.90;;;;;;5030655;28;20224;-52
2021/03/14 10:04:24;;;;;;;11.70;2.43;;;7.10;99.90;;;;;;5039609;28;20228;-55
2021/03/14 10:07:03;;;;;;;13.90;2.60;;;7.10;99.90;;;;;;5044906;28;20232;-52
2021/03/14 10:09:31;;;;;;;15.07;2.63;;;7.10;99.90;;;;;;5034493;28;20228;-51
2021/03/14 10:12:14;;;;;;;11.97;2.50;;;7.10;99.90;;;;;;5053300;28;20242;-54
2021/03/14 10:14:46;;;;;;;12.33;2.47;;;7.20;99.90;;;;;;5066693;28;20235;-54
2021/03/14 10:17:14;;;;;;;11.27;2.70;;;7.10;99.90;;;;;;5052008;28;20319;-51
2021/03/14 10:19:44;;;;;;;12.87;2.63;;;7.20;99.90;;;;;;5017302;28;20263;-53
2021/03/14 10:22:12;;;;;;;16.87;3.40;;;7.40;99.90;;;;;;5045628;28;20318;-54
2021/03/14 10:24:58;;;;;;;12.67;2.20;;;7.30;99.90;;;;;;5038415;28;20234;-53
2021/03/14 10:27:39;;;;;;;12.63;2.60;;;7.30;99.90;;;;;;5053348;28;20703;-52
2021/03/14 10:30:23;;;;;;;14.93;2.60;;;7.20;99.90;;;;;;5031138;28;20250;-51
2021/03/14 10:32:56;;;;;;;8.73;1.83;;;7.20;99.90;;;;;;5041651;28;20250;-52
2021/03/14 10:35:32;;;;;;;10.63;2.20;;;7.20;99.90;;;;;;5029420;28;20714;-54
2021/03/14 10:38:17;;;;;;;11.13;2.40;;;7.20;99.90;;;;;;5033979;28;20239;-52
2021/03/14 10:40:49;;;;;;;9.33;1.77;;;7.10;99.90;;;;;;5054131;28;20235;-52
2021/03/14 10:43:22;;;;;;;10.33;2.30;;;7.10;99.90;;;;;;5048973;28;20234;-52
2021/03/14 10:45:58;;;;;;;14.87;3.07;;;7.10;99.90;;;;;;5039267;28;20632;-52
2021/03/14 10:48:28;;;;;;;13.23;2.20;;;7.20;99.90;;;;;;5030558;28;20236;-51
2021/03/14 10:51:04;;;;;;;10.20;2.70;;;7.30;99.90;;;;;;5037905;28;20322;-53
2021/03/14 10:53:35;;;;;;;10.80;2.33;;;7.50;99.90;;;;;;5044403;28;20246;-52
2021/03/14 10:56:34;;;;;;;18.23;2.87;;;7.70;99.90;;;;;;5014154;28;20708;-51
2021/03/14 10:59:04;;;;;;;6.57;1.97;;;7.70;99.90;;;;;;5030775;28;20676;-53
2021/03/14 11:01:56;;;;;;;17.20;2.80;;;7.70;99.90;;;;;;5044889;28;20252;-52
2021/03/14 11:04:28;;;;;;;13.40;2.60;;;7.60;99.90;;;;;;5037343;28;20263;-52
2021/03/14 11:07:24;;;;;;;10.17;2.57;;;7.50;99.90;;;;;;5029196;28;20235;-52
2021/03/14 11:10:07;;;;;;;10.70;2.40;;;7.50;99.90;;;;;;5021482;28;20285;-54
2021/03/14 11:12:38;;;;;;;13.07;2.40;;;7.40;99.90;;;;;;5027879;28;20718;-51
2021/03/14 11:15:27;;;;;;;10.20;2.40;;;7.40;99.90;;;;;;5037623;28;20232;-55
2021/03/14 11:18:21;;;;;;;10.77;2.30;;;7.40;99.90;;;;;;5023338;28;21448;-54
2021/03/14 11:21:03;;;;;;;9.87;2.17;;;7.40;99.90;;;;;;5028713;28;20239;-54
2021/03/14 11:23:32;;;;;;;9.50;1.90;;;7.50;99.90;;;;;;5008006;28;20286;-52
2021/03/14 11:26:00;;;;;;;11.13;2.27;;;7.50;99.90;;;;;;5033266;28;20241;-55
2021/03/14 11:28:29;;;;;;;10.93;2.63;;;7.70;99.90;;;;;;5033531;28;20719;-53
2021/03/14 11:30:58;;;;;;;10.60;1.77;;;7.80;99.90;;;;;;5025511;28;20244;-53
2021/03/14 11:33:27;;;;;;;8.57;1.93;;;7.80;99.90;;;;;;5035560;28;20236;-56
2021/03/14 11:36:05;;;;;;;10.03;2.43;;;7.80;99.90;;;;;;5008623;28;20263;-55
2021/03/14 11:38:49;;;;;;;14.40;2.37;;;7.80;99.90;;;;;;5035206;28;21315;-52
2021/03/14 11:41:26;;;;;;;11.63;1.90;;;7.90;99.90;;;;;;5052396;28;20274;-55
2021/03/14 11:44:09;;;;;;;5.33;2.03;;;7.90;99.90;;;;;;5051896;28;20282;-53
2021/03/14 11:46:37;;;;;;;6.63;1.70;;;7.80;99.90;;;;;;5038580;28;20263;-53
2021/03/14 11:49:19;;;;;;;8.90;2.33;;;7.90;99.90;;;;;;5051542;28;20242;-52
2021/03/14 11:51:46;;;;;;;8.57;1.80;;;8.10;99.90;;;;;;5037883;28;20526;-53
2021/03/14 11:54:17;;;;;;;10.07;2.03;;;8.30;99.90;;;;;;5050066;28;20235;-53
2021/03/14 11:57:03;;;;;;;8.20;2.10;;;8.40;99.90;;;;;;5034768;28;20273;-55
2021/03/14 11:59:39;;;;;;;8.70;1.60;;;8.70;99.90;;;;;;5049791;28;20238;-54
2021/03/14 12:02:09;;;;;;;8.30;1.43;;;8.80;99.90;;;;;;5054025;28;20242;-53
2021/03/14 12:05:06;;;;;;;7.80;1.70;;;8.70;99.90;;;;;;5053465;28;20228;-52
2021/03/14 12:07:35;;;;;;;10.33;2.10;;;8.50;99.90;;;;;;5053769;28;20818;-51
2021/03/14 12:10:05;;;;;;;9.10;2.20;;;8.40;99.90;;;;;;5049959;28;20232;-53
2021/03/14 12:12:34;;;;;;;9.00;1.73;;;8.30;99.90;;;;;;5053558;28;20231;-56
2021/03/14 12:15:12;;;;;;;8.43;1.90;;;8.30;99.90;;;;;;5037140;28;20852;-56
2021/03/14 12:17:51;;;;;;;9.73;1.80;;;8.50;99.90;;;;;;5035287;28;20323;-51
2021/03/14 12:20:26;;;;;;;7.60;1.80;;;8.90;99.90;;;;;;5036934;28;20238;-52
2021/03/14 12:23:02;;;;;;;10.03;1.90;;;9.10;99.90;;;;;;5031128;28;20249;-56
2021/03/14 12:25:36;;;;;;;7.83;1.70;;;9.30;99.90;;;;;;5017200;28;20237;-53
2021/03/14 12:28:06;;;;;;;7.37;1.67;;;9.30;99.90;;;;;;5032253;28;20283;-56
2021/03/14 12:30:35;;;;;;;10.80;1.77;;;9.30;99.90;;;;;;5033694;28;20248;-55
2021/03/14 12:33:04;;;;;;;11.83;1.73;;;9.20;99.90;;;;;;5017183;28;20244;-55
2021/03/14 12:35:34;;;;;;;7.30;1.70;;;9.20;99.90;;;;;;5050400;28;20650;-55
2021/03/14 12:38:08;;;;;;;9.27;1.63;;;8.90;99.90;;;;;;5016270;28;20238;-55
2021/03/14 12:40:36;;;;;;;8.37;1.83;;;8.80;99.90;;;;;;5017736;28;20789;-54
2021/03/14 12:43:04;;;;;;;7.93;1.50;;;8.70;99.90;;;;;;5018444;28;20244;-55
2021/03/14 12:45:36;;;;;;;9.53;1.47;;;8.80;99.90;;;;;;5018073;28;20700;-51
2021/03/14 12:48:05;;;;;;;7.40;1.40;;;8.70;99.90;;;;;;5020466;28;20239;-53
2021/03/14 12:50:38;;;;;;;10.13;2.10;;;8.60;99.90;;;;;;5034654;28;20620;-54
2021/03/14 12:53:06;;;;;;;6.60;1.33;;;8.60;99.90;;;;;;5034889;28;20373;-55
2021/03/14 12:55:33;;;;;;;8.40;1.73;;;8.60;99.90;;;;;;5034015;28;20603;-54
2021/03/14 12:58:02;;;;;;;7.90;1.73;;;8.60;99.90;;;;;;5051349;28;20239;-55
2021/03/14 13:00:36;;;;;;;7.63;1.50;;;8.70;99.90;;;;;;5051528;28;20558;-51
2021/03/14 13:03:08;;;;;;;11.20;1.60;;;8.80;99.90;;;;;;5036965;28;20724;-53
2021/03/14 13:05:35;;;;;;;9.00;1.63;;;8.80;99.90;;;;;;5037558;28;20603;-54
2021/03/14 13:08:03;;;;;;;7.97;1.43;;;8.90;99.90;;;;;;5035991;28;20240;-55
2021/03/14 13:10:32;;;;;;;11.43;1.43;;;8.90;99.90;;;;;;5035957;28;20330;-56
2021/03/14 13:12:59;;;;;;;6.00;1.30;;;8.90;99.90;;;;;;5037481;28;20267;-56
2021/03/14 13:15:27;;;;;;;5.77;1.50;;;8.80;99.90;;;;;;5036015;28;20243;-54